createdAt,value
2022-08-05T00:01:28.548Z,21.32
2022-08-05T00:06:33.214Z,21.15
2022-08-05T00:11:45.212Z,21.05
2022-08-05T00:16:53.425Z,21.04
2022-08-05T00:21:55.511Z,21.06
2022-08-05T00:26:57.214Z,20.97
2022-08-05T00:32:12.262Z,20.83
2022-08-05T00:37:16.173Z,20.92
2022-08-05T00:42:31.584Z,20.95
2022-08-05T00:47:52.958Z,21.12
2022-08-05T00:52:55.542Z,21.09
2022-08-05T00:57:58.925Z,21.06
2022-08-05T01:03:00.779Z,21.06
2022-08-05T01:08:42.111Z,21.02
2022-08-05T01:13:57.454Z,20.92
2022-08-05T01:18:58.050Z,20.99
2022-08-05T01:24:23.471Z,21.22
2022-08-05T01:29:47.907Z,21.42
2022-08-05T01:34:59.300Z,21.51
2022-08-05T01:40:02.633Z,21.57
2022-08-05T01:45:08.200Z,21.93
2022-08-05T01:50:15.772Z,22.38
2022-08-05T01:55:21.668Z,22.43
2022-08-05T02:00:30.429Z,22.51
2022-08-05T02:05:35.860Z,22.61
2022-08-05T02:10:56.191Z,22.59
2022-08-05T02:16:04.237Z,22.65
2022-08-05T02:21:21.935Z,22.89
2022-08-05T02:26:27.896Z,22.89
2022-08-05T02:31:34.823Z,22.73
2022-08-05T02:36:42.685Z,22.51
2022-08-05T02:42:00.603Z,22.33
2022-08-05T02:47:05.281Z,22.20
2022-08-05T02:52:11.398Z,22.10
2022-08-05T02:58:09.766Z,22.04
2022-08-05T03:02:39.859Z,22.03
2022-08-05T03:08:06.648Z,21.89
2022-08-05T03:13:16.752Z,21.95
2022-08-05T03:18:18.682Z,21.91
2022-08-05T03:23:26.949Z,21.88
2022-08-05T03:28:31.635Z,21.87
2022-08-05T03:33:49.350Z,21.90
2022-08-05T03:38:54.209Z,21.98
2022-08-05T03:44:08.123Z,22.18
2022-08-05T03:49:11.647Z,22.19
2022-08-05T03:55:33.957Z,22.13
2022-08-05T03:59:54.489Z,22.08
2022-08-05T04:04:59.038Z,22.09
2022-08-05T04:10:01.628Z,22.14
2022-08-05T04:15:06.072Z,22.09
2022-08-05T04:20:19.867Z,22.04
2022-08-05T04:25:38.469Z,22.03
2022-08-05T04:30:43.255Z,21.94
2022-08-05T04:36:16.813Z,21.86
2022-08-05T04:41:07.314Z,21.84
2022-08-05T04:46:10.990Z,21.95
2022-08-05T04:51:14.775Z,22.13
2022-08-05T04:56:34.876Z,22.25
2022-08-05T05:02:35.737Z,22.46
2022-08-05T05:06:59.509Z,22.85
2022-08-05T05:12:03.114Z,23.13
2022-08-05T05:17:07.339Z,23.36
2022-08-05T05:22:24.258Z,23.52
2022-08-05T05:27:41.253Z,23.69
2022-08-05T05:32:46.959Z,23.72
2022-08-05T05:38:00.101Z,23.64
2022-08-05T05:43:03.794Z,23.55
2022-08-05T05:48:08.923Z,23.48
2022-08-05T05:53:22.459Z,23.38
2022-08-05T05:58:31.947Z,23.20
2022-08-05T06:03:53.701Z,23.01
2022-08-05T06:08:55.562Z,23.01
2022-08-05T06:13:57.253Z,23.04
2022-08-05T06:19:00.818Z,23.09
2022-08-05T06:24:03.326Z,23.26
2022-08-05T06:29:24.681Z,23.60
2022-08-05T06:34:26.599Z,24.24
2022-08-05T06:39:29.547Z,24.91
2022-08-05T06:44:32.883Z,25.56
2022-08-05T06:50:01.964Z,26.12
2022-08-05T06:54:55.983Z,26.67
2022-08-05T06:59:58.324Z,27.17
2022-08-05T07:04:59.954Z,27.55
2022-08-05T07:10:03.357Z,27.97
2022-08-05T07:15:34.799Z,28.26
2022-08-05T07:20:47.870Z,28.61
2022-08-05T07:25:55.385Z,28.95
2022-08-05T07:30:58.380Z,29.11
2022-08-05T07:36:04.001Z,29.33
2022-08-05T07:42:14.223Z,29.57
2022-08-05T07:46:48.255Z,30.16
2022-08-05T07:51:54.694Z,30.78
2022-08-05T07:57:02.934Z,31.22
2022-08-05T08:02:18.455Z,31.03
2022-08-05T08:07:22.003Z,30.58
2022-08-05T08:12:35.181Z,30.56
2022-08-05T08:17:43.960Z,31.01
2022-08-05T08:22:59.411Z,30.86
2022-08-05T08:28:04.903Z,30.70
2022-08-05T08:33:13.836Z,30.62
2022-08-05T08:38:16.719Z,30.43
2022-08-05T08:45:24.352Z,31.01
2022-08-05T08:50:03.782Z,31.65
2022-08-05T08:54:21.456Z,32.07
2022-08-05T08:59:33.600Z,32.08
2022-08-05T09:04:58.386Z,31.93
2022-08-05T09:09:59.330Z,31.59
2022-08-05T09:15:06.725Z,31.58
2022-08-05T09:20:12.844Z,31.54
2022-08-05T09:26:01.668Z,31.72
2022-08-05T09:31:43.176Z,31.85
2022-08-05T09:36:56.317Z,32.20
2022-08-05T09:42:03.949Z,32.41
2022-08-05T09:47:16.221Z,32.66
2022-08-05T09:52:22.461Z,32.63
2022-08-05T09:57:30.719Z,32.62
2022-08-05T10:02:42.676Z,32.35
2022-08-05T10:08:10.581Z,32.19
2022-08-05T10:13:10.161Z,32.36
2022-08-05T10:18:17.434Z,32.57
2022-08-05T10:23:55.517Z,31.80
2022-08-05T10:28:46.328Z,31.84
2022-08-05T10:33:54.245Z,32.09
2022-08-05T10:39:10.211Z,32.23
2022-08-05T10:44:15.954Z,31.95
2022-08-05T10:49:19.256Z,32.11
2022-08-05T10:55:05.855Z,31.91
2022-08-05T11:00:19.736Z,32.48
2022-08-05T11:05:24.308Z,32.78
2022-08-05T11:10:32.737Z,32.58
2022-08-05T11:15:59.362Z,32.55
2022-08-05T11:21:06.193Z,32.64
2022-08-05T11:26:28.419Z,32.52
2022-08-05T11:31:57.608Z,32.48
2022-08-05T11:36:53.924Z,32.42
2022-08-05T11:42:04.229Z,32.36
2022-08-05T11:47:11.694Z,31.98
2022-08-05T11:52:29.064Z,31.56
2022-08-05T11:57:39.318Z,31.22
2022-08-05T12:02:53.378Z,31.93
2022-08-05T12:08:07.258Z,32.20
2022-08-05T12:13:15.551Z,31.89
2022-08-05T12:18:20.580Z,31.87
2022-08-05T12:23:25.807Z,32.07
2022-08-05T12:28:37.067Z,32.46
2022-08-05T12:33:39.752Z,32.93
2022-08-05T12:38:45.032Z,32.86
2022-08-05T12:43:56.987Z,33.00
2022-08-05T12:49:13.238Z,32.89
2022-08-05T12:54:33.617Z,33.15
2022-08-05T13:02:04.063Z,33.38
2022-08-05T13:05:12.655Z,32.64
2022-08-05T13:10:19.602Z,32.35
2022-08-05T13:15:24.398Z,32.08
2022-08-05T13:20:40.366Z,31.92
2022-08-05T13:25:52.701Z,31.95
2022-08-05T13:31:10.931Z,32.02
2022-08-05T13:36:15.775Z,32.05
2022-08-05T13:41:17.390Z,31.47
2022-08-05T13:46:35.703Z,31.37
2022-08-05T13:51:46.502Z,31.28
2022-08-05T13:56:51.689Z,31.20
2022-08-05T14:02:00.005Z,30.76
2022-08-05T14:07:26.337Z,30.39
2022-08-05T14:12:32.255Z,30.22
2022-08-05T14:17:34.852Z,30.10
2022-08-05T14:22:37.151Z,29.43
2022-08-05T14:27:38.724Z,29.08
2022-08-05T14:32:49.111Z,28.89
2022-08-05T14:37:55.468Z,29.06
2022-08-05T14:42:57.270Z,29.16
2022-08-05T14:48:05.345Z,29.50
2022-08-05T14:53:07.752Z,29.91
2022-08-05T14:58:10.941Z,29.80
2022-08-05T15:03:13.893Z,29.65
2022-08-05T15:08:17.960Z,29.33
2022-08-05T15:13:46.474Z,29.07
2022-08-05T15:18:51.920Z,28.66
2022-08-05T15:23:54.310Z,28.53
2022-08-05T15:28:55.870Z,28.21
2022-08-05T15:34:31.292Z,28.12
2022-08-05T15:41:00.281Z,28.00
2022-08-05T15:44:44.193Z,27.90
2022-08-05T15:49:55.951Z,27.88
2022-08-05T15:55:01.195Z,27.88
2022-08-05T16:00:07.998Z,27.75
2022-08-05T16:05:09.783Z,27.52
2022-08-05T16:10:12.983Z,27.39
2022-08-05T16:15:18.776Z,27.30
2022-08-05T16:20:20.528Z,27.18
2022-08-05T16:25:22.078Z,27.13
2022-08-05T16:30:34.549Z,27.07
2022-08-05T16:35:42.967Z,26.99
2022-08-05T16:40:51.846Z,26.85
2022-08-05T16:46:06.598Z,26.66
2022-08-05T16:51:11.025Z,25.96
2022-08-05T16:56:12.723Z,25.46
2022-08-05T17:01:14.579Z,24.86
2022-08-05T17:06:16.449Z,24.57
2022-08-05T17:11:18.571Z,24.28
2022-08-05T17:16:30.258Z,23.98
2022-08-05T17:21:36.749Z,23.77
2022-08-05T17:26:39.104Z,23.71
2022-08-05T17:31:58.259Z,23.65
2022-08-05T17:37:00.744Z,23.44
2022-08-05T17:42:17.860Z,23.36
2022-08-05T17:47:22.928Z,23.21
2022-08-05T17:52:25.577Z,23.06
2022-08-05T17:57:28.247Z,22.96
2022-08-05T18:02:29.891Z,22.83
2022-08-05T18:07:32.988Z,22.70
2022-08-05T18:12:43.388Z,22.60
2022-08-05T18:18:00.903Z,22.46
2022-08-05T18:23:11.206Z,22.27
2022-08-05T18:28:16.163Z,22.13
2022-08-05T18:33:24.084Z,21.99
2022-08-05T18:38:26.646Z,21.85
2022-08-05T18:43:31.654Z,21.69
2022-08-05T18:48:41.706Z,21.53
2022-08-05T18:53:50.250Z,21.41
2022-08-05T18:58:54.681Z,21.36
2022-08-05T19:03:56.792Z,21.31
2022-08-05T19:08:58.357Z,21.28
2022-08-05T19:14:19.966Z,21.18
2022-08-05T19:19:24.659Z,21.10
2022-08-05T19:24:34.328Z,21.02
2022-08-05T19:29:36.711Z,20.96
2022-08-05T19:34:40.648Z,20.93
2022-08-05T19:39:45.225Z,20.86
2022-08-05T19:44:53.238Z,20.81
2022-08-05T19:50:00.807Z,20.78
2022-08-05T19:55:06.882Z,20.77
2022-08-05T20:00:09.796Z,20.78
2022-08-05T20:05:16.403Z,20.80
2022-08-05T20:10:25.802Z,20.79
2022-08-05T20:15:48.735Z,20.82
2022-08-05T20:20:50.768Z,20.82
2022-08-05T20:25:52.551Z,20.80
2022-08-05T20:30:55.147Z,20.82
2022-08-05T20:35:56.768Z,20.83
2022-08-05T20:41:00.066Z,20.85
2022-08-05T20:46:06.831Z,20.85
2022-08-05T20:51:08.524Z,20.84
2022-08-05T20:56:10.110Z,20.84
2022-08-05T21:01:13.908Z,20.89
2022-08-05T21:06:27.721Z,20.92
2022-08-05T21:12:07.498Z,20.98
2022-08-05T21:16:51.919Z,20.96
2022-08-05T21:21:53.450Z,20.95
2022-08-05T21:26:58.654Z,20.91
2022-08-05T21:32:03.957Z,20.83
2022-08-05T21:37:05.663Z,20.87
2022-08-05T21:42:07.590Z,20.89
2022-08-05T21:47:55.683Z,20.86
2022-08-05T21:52:50.803Z,20.85
2022-08-05T21:57:52.549Z,20.85
2022-08-05T22:02:55.646Z,20.85
2022-08-05T22:08:02.089Z,20.85
2022-08-05T22:13:09.373Z,20.82
2022-08-05T22:18:25.943Z,20.79
2022-08-05T22:24:02.677Z,20.75
2022-08-05T22:29:06.669Z,20.70
2022-08-05T22:34:08.197Z,20.69
2022-08-05T22:39:12.689Z,20.66
2022-08-05T22:44:14.595Z,20.64
2022-08-05T22:50:17.984Z,20.62
2022-08-05T22:54:46.663Z,20.59
2022-08-05T22:59:54.088Z,20.53
2022-08-05T23:04:55.967Z,20.50
2022-08-05T23:10:01.508Z,20.51
2022-08-05T23:15:08.726Z,20.50
2022-08-05T23:20:17.877Z,20.43
2022-08-05T23:25:52.436Z,20.41
2022-08-05T23:30:43.466Z,20.36
2022-08-05T23:35:45.601Z,20.33
2022-08-05T23:40:50.087Z,20.29
2022-08-05T23:45:52.056Z,20.25
2022-08-05T23:50:53.598Z,20.21
2022-08-05T23:55:55.174Z,20.19
